Time;durP1;ratioP1;P1;durP2;ratioP2;P2;SDS_P1;SDS_P2;PMS_P1;PMS_P2;Temp;Humidity;BMP_temperature;BMP_pressure;BME280_temperature;BME280_humidity;BME280_pressure;Samples;Min_cycle;Max_cycle;Signal;HPM_P1;HPM_P2
2022/03/27 00:00:49;;;;;;;6.35;5.50;;;6.80;99.90;;;;;;5104134;27;20047;-70
2022/03/27 00:03:15;;;;;;;8.27;6.10;;;6.80;99.90;;;;;;5129186;27;20564;-70
2022/03/27 00:05:41;;;;;;;8.20;5.97;;;6.80;99.90;;;;;;5103897;28;20115;-70
2022/03/27 00:08:06;;;;;;;9.07;6.70;;;6.70;99.90;;;;;;5105574;27;20047;-70
2022/03/27 00:11:23;;;;;;;9.07;7.00;;;6.70;99.90;;;;;;5104018;28;20142;-70
2022/03/27 00:13:18;;;;;;;7.90;6.38;;;6.70;99.90;;;;;;5102020;27;20046;-70
2022/03/27 00:15:43;;;;;;;7.93;6.50;;;6.70;99.90;;;;;;5133676;27;20035;-70
2022/03/27 00:18:09;;;;;;;7.93;6.55;;;6.80;99.90;;;;;;5099304;28;20063;-70
2022/03/27 00:20:34;;;;;;;8.82;6.47;;;6.80;99.90;;;;;;5130669;27;20040;-70
2022/03/27 00:23:00;;;;;;;8.65;6.95;;;6.80;99.90;;;;;;5101030;27;20046;-71
2022/03/27 00:25:25;;;;;;;9.00;7.38;;;6.80;99.90;;;;;;5103119;27;20044;-71
2022/03/27 00:27:51;;;;;;;11.23;7.43;;;6.80;99.90;;;;;;5102491;27;20053;-71
2022/03/27 00:30:16;;;;;;;8.73;7.63;;;6.90;99.90;;;;;;5130518;27;20441;-71
2022/03/27 00:32:42;;;;;;;11.25;8.23;;;6.80;99.90;;;;;;5100451;27;20051;-71
2022/03/27 00:35:08;;;;;;;8.43;7.40;;;6.80;99.90;;;;;;5105387;28;20077;-71
2022/03/27 00:37:35;;;;;;;10.18;6.90;;;6.80;99.90;;;;;;5100343;27;20074;-71
2022/03/27 00:40:00;;;;;;;10.52;6.80;;;6.90;99.90;;;;;;5101543;28;20043;-70
2022/03/27 00:42:26;;;;;;;10.60;6.20;;;6.90;99.90;;;;;;5099546;27;20032;-71
2022/03/27 00:44:51;;;;;;;8.45;6.65;;;6.90;99.90;;;;;;5100079;28;20921;-71
2022/03/27 00:47:17;;;;;;;7.57;6.03;;;6.90;99.90;;;;;;5105416;27;20059;-71
2022/03/27 00:49:43;;;;;;;9.13;6.22;;;6.90;99.90;;;;;;5100109;27;20101;-71
2022/03/27 00:52:08;;;;;;;9.75;6.63;;;6.90;99.90;;;;;;5100720;28;20103;-70
2022/03/27 00:54:34;;;;;;;6.97;5.80;;;6.90;99.90;;;;;;5100922;27;20035;-70
2022/03/27 00:57:00;;;;;;;7.82;6.35;;;6.80;99.90;;;;;;5100958;27;20039;-71
2022/03/27 00:59:26;;;;;;;8.27;6.72;;;6.80;99.90;;;;;;5102561;28;20036;-71
2022/03/27 01:01:51;;;;;;;10.52;6.38;;;6.80;99.90;;;;;;5102101;27;20047;-71
2022/03/27 01:04:17;;;;;;;8.30;5.97;;;6.80;99.90;;;;;;5098087;27;20031;-71
2022/03/27 01:06:44;;;;;;;7.97;6.22;;;6.80;99.90;;;;;;5126305;27;20100;-71
2022/03/27 01:09:37;;;;;;;7.30;6.60;;;6.80;99.90;;;;;;5103463;28;20044;-71
2022/03/27 01:12:22;;;;;;;8.98;6.00;;;6.70;99.90;;;;;;5100924;27;20166;-71
2022/03/27 01:14:53;;;;;;;8.13;6.00;;;6.70;99.90;;;;;;5099896;27;20043;-71
2022/03/27 01:17:24;;;;;;;8.45;6.93;;;6.70;99.90;;;;;;5100048;27;20036;-71
2022/03/27 01:19:52;;;;;;;11.60;6.93;;;6.70;99.90;;;;;;5088639;28;20028;-71
2022/03/27 01:22:19;;;;;;;8.30;6.55;;;6.70;99.90;;;;;;5101187;27;20040;-71
2022/03/27 01:24:45;;;;;;;8.50;6.40;;;6.80;99.90;;;;;;5098738;27;20043;-71
2022/03/27 01:27:11;;;;;;;8.90;5.60;;;6.80;99.90;;;;;;5098559;27;20043;-71
2022/03/27 01:29:37;;;;;;;9.73;5.38;;;6.80;99.90;;;;;;5126267;27;20539;-71
2022/03/27 01:32:05;;;;;;;7.70;4.78;;;6.80;99.90;;;;;;5103571;28;20501;-71
2022/03/27 01:34:31;;;;;;;9.25;5.63;;;6.80;99.90;;;;;;5101556;27;20042;-71
2022/03/27 01:37:03;;;;;;;9.63;5.72;;;6.90;99.90;;;;;;5102085;27;20396;-71
2022/03/27 01:39:29;;;;;;;6.38;5.15;;;6.80;99.90;;;;;;5101877;28;20078;-71
2022/03/27 01:41:55;;;;;;;9.82;5.88;;;6.80;99.90;;;;;;5128453;27;20032;-70
2022/03/27 01:44:21;;;;;;;6.85;5.10;;;6.90;99.90;;;;;;5097484;27;20040;-70
2022/03/27 01:46:47;;;;;;;8.43;6.00;;;6.80;99.90;;;;;;5098322;28;20468;-70
2022/03/27 01:49:15;;;;;;;9.75;5.88;;;6.90;99.90;;;;;;5096245;28;20040;-71
2022/03/27 01:51:42;;;;;;;7.97;5.63;;;6.90;99.90;;;;;;5102693;28;20043;-70
2022/03/27 01:54:08;;;;;;;8.25;5.45;;;7.00;99.90;;;;;;5096346;27;20050;-71
2022/03/27 01:56:34;;;;;;;10.40;5.72;;;7.00;99.90;;;;;;5097416;28;20047;-70
2022/03/27 01:59:00;;;;;;;5.47;4.57;;;7.00;99.90;;;;;;5095998;28;20040;-71
2022/03/27 02:01:25;;;;;;;8.32;4.38;;;7.00;99.90;;;;;;5095504;27;20573;-71
2022/03/27 02:03:54;;;;;;;9.70;6.03;;;7.00;99.90;;;;;;5126375;27;20138;-71
2022/03/27 02:06:19;;;;;;;12.43;8.48;;;7.00;99.90;;;;;;5098514;27;20043;-71
2022/03/27 02:08:46;;;;;;;11.23;7.15;;;6.90;99.90;;;;;;5124368;27;20048;-71
2022/03/27 02:11:15;;;;;;;9.05;6.78;;;6.90;99.90;;;;;;5122983;27;20387;-71
2022/03/27 02:13:41;;;;;;;18.15;8.30;;;6.90;99.90;;;;;;5080361;28;20063;-71
2022/03/27 02:16:07;;;;;;;20.63;12.38;;;6.90;99.90;;;;;;5099111;27;20067;-70
2022/03/27 02:18:33;;;;;;;13.25;10.75;;;6.80;99.90;;;;;;5102927;28;20137;-70
2022/03/27 02:21:03;;;;;;;17.05;9.77;;;6.80;99.90;;;;;;5098581;27;20055;-70
2022/03/27 02:23:29;;;;;;;14.88;9.48;;;6.80;99.90;;;;;;5083340;28;20118;-71
2022/03/27 02:25:55;;;;;;;12.93;9.15;;;6.80;99.90;;;;;;5097539;28;20038;-71
2022/03/27 02:28:22;;;;;;;11.95;8.43;;;6.90;99.90;;;;;;5098129;28;20035;-71
2022/03/27 02:30:47;;;;;;;15.60;8.30;;;6.90;99.90;;;;;;5099738;27;20417;-71
2022/03/27 02:33:13;;;;;;;13.30;8.18;;;6.80;99.90;;;;;;5101279;28;20044;-71
2022/03/27 02:35:39;;;;;;;17.65;8.95;;;6.80;99.90;;;;;;5128664;27;20061;-70
2022/03/27 02:38:06;;;;;;;15.15;8.07;;;6.80;99.90;;;;;;5083764;28;20381;-70
2022/03/27 02:40:37;;;;;;;13.25;8.05;;;6.80;99.90;;;;;;5101702;27;20520;-71
2022/03/27 02:43:03;;;;;;;14.07;8.50;;;6.80;99.90;;;;;;5098765;28;20047;-71
2022/03/27 02:45:29;;;;;;;17.58;10.48;;;6.80;99.90;;;;;;5099945;28;20062;-71
2022/03/27 02:47:56;;;;;;;14.45;9.05;;;6.80;99.90;;;;;;5098459;28;20040;-71
2022/03/27 02:50:21;;;;;;;17.73;9.65;;;6.80;99.90;;;;;;5100581;28;20065;-71
2022/03/27 02:52:47;;;;;;;14.90;9.57;;;6.80;99.90;;;;;;5127303;27;20040;-71
2022/03/27 02:55:13;;;;;;;14.90;9.75;;;6.80;99.90;;;;;;5104552;28;20669;-71
2022/03/27 02:57:39;;;;;;;14.63;10.20;;;6.80;99.90;;;;;;5102803;28;20028;-71
2022/03/27 03:00:07;;;;;;;18.65;10.32;;;6.80;99.90;;;;;;5104491;28;20050;-71
2022/03/27 03:02:33;;;;;;;15.73;8.98;;;6.80;99.90;;;;;;5097016;28;20523;-71
2022/03/27 03:04:59;;;;;;;18.95;10.00;;;6.90;99.90;;;;;;5103316;28;20127;-70
2022/03/27 03:07:25;;;;;;;18.13;11.13;;;6.90;99.90;;;;;;5101136;28;20056;-71
2022/03/27 03:09:51;;;;;;;22.45;12.63;;;6.90;99.90;;;;;;5085588;28;20054;-71
2022/03/27 03:12:17;;;;;;;19.48;11.18;;;6.90;99.90;;;;;;5103778;27;20035;-70
2022/03/27 03:14:43;;;;;;;18.85;10.82;;;6.90;99.90;;;;;;5106501;27;20462;-71
2022/03/27 03:17:08;;;;;;;21.10;11.70;;;6.90;99.90;;;;;;5100365;27;20142;-71
2022/03/27 03:19:34;;;;;;;19.25;10.38;;;6.90;99.90;;;;;;5105160;27;20035;-71
2022/03/27 03:22:00;;;;;;;24.25;12.45;;;6.90;99.90;;;;;;5129528;27;20043;-71
2022/03/27 03:24:27;;;;;;;22.48;11.27;;;6.80;99.90;;;;;;5103745;27;20040;-70
2022/03/27 03:26:54;;;;;;;21.92;10.95;;;6.80;99.90;;;;;;5104286;27;20493;-71
2022/03/27 03:29:21;;;;;;;18.00;10.68;;;6.80;99.90;;;;;;5104101;27;20097;-71
2022/03/27 03:31:47;;;;;;;18.10;11.65;;;6.80;99.90;;;;;;5103866;27;20092;-70
2022/03/27 03:34:13;;;;;;;19.95;12.02;;;6.80;99.90;;;;;;5103825;27;20087;-71
2022/03/27 03:36:38;;;;;;;16.88;10.70;;;6.80;99.90;;;;;;5102666;27;20525;-71
2022/03/27 03:39:04;;;;;;;19.05;11.27;;;6.80;99.90;;;;;;5106414;27;20043;-71
2022/03/27 03:41:30;;;;;;;19.90;10.32;;;6.90;99.90;;;;;;5102423;27;20031;-71
2022/03/27 03:43:56;;;;;;;20.58;10.40;;;6.80;99.90;;;;;;5101687;27;20201;-71
2022/03/27 03:46:21;;;;;;;17.40;11.15;;;6.90;99.90;;;;;;5128232;27;20039;-71
2022/03/27 03:48:47;;;;;;;24.15;10.52;;;6.90;99.90;;;;;;5103573;27;20047;-71
2022/03/27 03:51:13;;;;;;;16.48;9.60;;;6.90;99.90;;;;;;5103505;27;20039;-70
2022/03/27 03:53:38;;;;;;;20.42;10.02;;;6.90;99.90;;;;;;5103283;27;20131;-70
2022/03/27 03:56:05;;;;;;;22.38;9.32;;;6.80;99.90;;;;;;5135977;27;20054;-71
2022/03/27 03:58:32;;;;;;;13.52;7.85;;;6.90;99.90;;;;;;5104579;27;20048;-70
2022/03/27 04:01:00;;;;;;;19.65;8.68;;;6.90;99.90;;;;;;5130675;27;20493;-70
2022/03/27 04:03:26;;;;;;;18.65;8.07;;;6.80;99.90;;;;;;5132146;27;20172;-70
2022/03/27 04:05:51;;;;;;;23.02;8.40;;;6.80;99.90;;;;;;5101339;27;20060;-70
2022/03/27 04:08:18;;;;;;;17.52;7.88;;;6.90;99.90;;;;;;5130255;27;20177;-70
2022/03/27 04:10:44;;;;;;;23.58;7.95;;;6.90;99.90;;;;;;5102926;27;20086;-70
2022/03/27 04:13:09;;;;;;;17.70;8.35;;;6.80;99.90;;;;;;5103425;28;20535;-70
2022/03/27 04:15:37;;;;;;;17.88;7.47;;;6.80;99.90;;;;;;5131642;27;20071;-70
2022/03/27 04:18:03;;;;;;;18.30;6.78;;;6.80;99.90;;;;;;5104226;27;20027;-70
2022/03/27 04:20:29;;;;;;;19.00;7.18;;;6.80;99.90;;;;;;5104236;27;20538;-70
2022/03/27 04:22:55;;;;;;;20.83;7.60;;;6.80;99.90;;;;;;5103680;27;20024;-71
2022/03/27 04:25:20;;;;;;;17.17;7.20;;;6.80;99.90;;;;;;5127361;27;20028;-70
2022/03/27 04:27:47;;;;;;;20.27;7.68;;;6.80;99.90;;;;;;5105285;27;20039;-71
2022/03/27 04:30:13;;;;;;;22.90;7.88;;;6.80;99.90;;;;;;5105602;27;20051;-71
2022/03/27 04:32:39;;;;;;;17.42;8.18;;;6.80;99.90;;;;;;5102904;27;20048;-71
2022/03/27 04:35:06;;;;;;;18.35;8.13;;;6.80;99.90;;;;;;5101315;27;20698;-71
2022/03/27 04:37:40;;;;;;;25.20;8.80;;;6.90;99.90;;;;;;5102942;27;20867;-71
2022/03/27 04:40:07;;;;;;;20.73;9.23;;;6.90;99.90;;;;;;5101945;27;20054;-71
2022/03/27 04:42:33;;;;;;;25.08;10.25;;;6.90;99.90;;;;;;5103228;27;20039;-71
2022/03/27 04:44:58;;;;;;;26.90;9.70;;;6.90;99.90;;;;;;5101546;28;20031;-71
2022/03/27 04:47:24;;;;;;;23.15;8.70;;;6.80;99.90;;;;;;5100178;28;20046;-71
2022/03/27 04:49:49;;;;;;;23.50;8.27;;;6.90;99.90;;;;;;5103036;27;20090;-71
2022/03/27 04:52:15;;;;;;;20.10;8.52;;;6.90;99.90;;;;;;5099970;27;20043;-70
2022/03/27 04:54:40;;;;;;;25.52;9.20;;;6.80;99.90;;;;;;5131007;27;20047;-71
2022/03/27 04:57:06;;;;;;;31.08;10.77;;;6.80;99.90;;;;;;5103211;27;20031;-70
2022/03/27 04:59:32;;;;;;;22.90;9.88;;;6.80;99.90;;;;;;5084309;28;20047;-71
2022/03/27 05:01:58;;;;;;;33.63;10.60;;;6.80;99.90;;;;;;5098072;27;20050;-71
2022/03/27 05:04:25;;;;;;;30.83;10.85;;;6.80;99.90;;;;;;5101989;27;20805;-71
2022/03/27 05:06:51;;;;;;;27.00;11.00;;;6.80;99.90;;;;;;5102425;28;20035;-71
2022/03/27 05:09:18;;;;;;;28.80;10.55;;;6.80;99.90;;;;;;5100452;27;20028;-71
2022/03/27 05:11:43;;;;;;;28.15;10.98;;;6.80;99.90;;;;;;5096390;27;20157;-70
2022/03/27 05:14:09;;;;;;;36.45;11.65;;;6.70;99.90;;;;;;5103422;27;20162;-71
2022/03/27 05:16:34;;;;;;;29.60;10.98;;;6.70;99.90;;;;;;5101821;27;20581;-70
2022/03/27 05:19:00;;;;;;;38.22;14.40;;;6.80;99.90;;;;;;5098204;27;20040;-71
2022/03/27 05:21:27;;;;;;;36.47;12.93;;;6.80;99.90;;;;;;5126736;27;20055;-71
2022/03/27 05:23:52;;;;;;;30.48;12.80;;;6.80;99.90;;;;;;5103329;27;20062;-71
2022/03/27 05:26:18;;;;;;;36.75;13.95;;;6.90;99.90;;;;;;5102923;27;20036;-71
2022/03/27 05:28:43;;;;;;;29.35;11.73;;;6.80;99.90;;;;;;5094651;27;20055;-71
2022/03/27 05:31:09;;;;;;;40.83;13.73;;;6.80;99.90;;;;;;5096571;27;20035;-71
2022/03/27 05:33:36;;;;;;;32.33;14.25;;;6.80;99.90;;;;;;5103468;27;20137;-71
2022/03/27 05:36:07;;;;;;;34.60;15.10;;;6.80;99.90;;;;;;5098736;28;20050;-71
2022/03/27 05:38:34;;;;;;;37.03;13.98;;;6.90;99.90;;;;;;5100234;27;20531;-71
2022/03/27 05:41:00;;;;;;;41.42;14.43;;;6.80;99.90;;;;;;5097138;28;20035;-71
2022/03/27 05:43:26;;;;;;;40.97;13.18;;;6.80;99.90;;;;;;5102438;27;20087;-70
2022/03/27 05:45:53;;;;;;;42.85;14.68;;;6.80;99.90;;;;;;5101261;28;20036;-71
2022/03/27 05:48:20;;;;;;;38.70;12.30;;;6.90;99.90;;;;;;5101675;27;20404;-71
2022/03/27 05:50:46;;;;;;;42.10;13.52;;;6.80;99.90;;;;;;5100102;27;20534;-71
2022/03/27 05:53:15;;;;;;;35.67;12.52;;;6.90;99.90;;;;;;5096318;27;20043;-71
2022/03/27 05:55:41;;;;;;;28.45;10.73;;;6.80;99.90;;;;;;5099851;27;20028;-70
2022/03/27 05:58:07;;;;;;;34.28;11.32;;;6.90;99.90;;;;;;5097850;28;20067;-71
2022/03/27 06:00:34;;;;;;;31.33;10.98;;;6.90;99.90;;;;;;5100219;27;20108;-71
2022/03/27 06:03:01;;;;;;;36.72;10.77;;;6.90;99.90;;;;;;5100729;27;20050;-70
2022/03/27 06:05:26;;;;;;;34.80;9.95;;;6.90;99.90;;;;;;5099778;28;20402;-71
2022/03/27 06:07:54;;;;;;;39.35;9.57;;;6.90;99.90;;;;;;5100680;27;20050;-71
2022/03/27 06:10:23;;;;;;;37.33;9.60;;;6.80;99.90;;;;;;5099554;28;20815;-71
2022/03/27 06:12:49;;;;;;;36.53;10.02;;;6.90;99.90;;;;;;5093837;27;20044;-71
2022/03/27 06:15:17;;;;;;;41.15;10.35;;;6.90;99.90;;;;;;5095613;28;20505;-71
2022/03/27 06:17:45;;;;;;;34.17;9.48;;;6.90;99.90;;;;;;5128291;27;20059;-71
2022/03/27 06:20:13;;;;;;;34.70;10.55;;;6.90;99.90;;;;;;5126650;27;20084;-71
2022/03/27 06:22:40;;;;;;;39.55;10.95;;;6.90;99.90;;;;;;5093569;28;20051;-71
2022/03/27 06:25:09;;;;;;;42.88;11.13;;;7.00;99.90;;;;;;5094233;28;20036;-71
2022/03/27 06:27:36;;;;;;;38.58;9.68;;;6.90;99.90;;;;;;5098423;27;20092;-71
2022/03/27 06:30:07;;;;;;;45.00;10.88;;;7.00;99.90;;;;;;5100401;28;20043;-71
2022/03/27 06:32:34;;;;;;;43.25;9.27;;;7.00;99.90;;;;;;5096639;28;20040;-71
2022/03/27 06:35:00;;;;;;;42.35;9.80;;;7.00;99.90;;;;;;5126110;27;20691;-71
2022/03/27 06:37:27;;;;;;;35.67;9.82;;;7.00;99.90;;;;;;5098851;28;20039;-71
2022/03/27 06:39:54;;;;;;;35.40;11.20;;;7.20;99.90;;;;;;5098117;28;20043;-71
2022/03/27 06:42:21;;;;;;;36.58;10.73;;;7.20;99.90;;;;;;5097303;28;20043;-71
2022/03/27 06:44:47;;;;;;;43.13;10.30;;;7.30;99.90;;;;;;5124293;27;20035;-71
2022/03/27 06:47:13;;;;;;;36.03;10.57;;;7.20;99.90;;;;;;5097373;27;20039;-71
2022/03/27 06:49:40;;;;;;;41.35;10.30;;;7.20;99.90;;;;;;5098880;28;20036;-71
2022/03/27 06:52:07;;;;;;;52.35;12.23;;;7.20;99.90;;;;;;5097100;28;20056;-71
2022/03/27 06:54:34;;;;;;;47.80;10.32;;;7.20;99.90;;;;;;5105592;27;20091;-71
2022/03/27 06:57:00;;;;;;;35.28;10.00;;;7.20;99.90;;;;;;5100463;28;20481;-71
2022/03/27 06:59:26;;;;;;;46.33;10.65;;;7.20;99.90;;;;;;5100178;28;20122;-71
2022/03/27 07:04:36;;;;;;;41.72;11.18;;;7.30;99.90;;;;;;5098061;28;20040;-69
2022/03/27 07:07:02;;;;;;;40.65;10.07;;;7.30;99.90;;;;;;5099267;27;20043;-69
2022/03/27 07:09:28;;;;;;;46.30;12.82;;;7.30;99.90;;;;;;5096768;28;20134;-69
2022/03/27 07:11:54;;;;;;;41.97;13.27;;;7.30;99.90;;;;;;5098728;28;20036;-70
2022/03/27 07:14:19;;;;;;;45.88;9.52;;;7.30;99.90;;;;;;5100339;28;20039;-68
2022/03/27 07:16:45;;;;;;;43.40;9.40;;;7.40;99.90;;;;;;5097114;28;20043;-67
2022/03/27 07:19:14;;;;;;;32.17;7.80;;;7.30;99.90;;;;;;5133772;27;20035;-71
2022/03/27 07:21:41;;;;;;;80.57;47.75;;;7.30;99.90;;;;;;5096303;28;20574;-71
2022/03/27 07:24:07;;;;;;;36.65;8.55;;;7.40;99.90;;;;;;5096609;28;20032;-68
2022/03/27 07:26:33;;;;;;;43.97;9.00;;;7.40;99.90;;;;;;5129557;27;20482;-71
2022/03/27 07:28:59;;;;;;;36.60;7.75;;;7.40;99.90;;;;;;5097702;28;20066;-70
2022/03/27 07:31:24;;;;;;;35.35;8.70;;;7.40;99.90;;;;;;5098608;27;20417;-71
2022/03/27 07:33:52;;;;;;;37.65;9.00;;;7.50;99.90;;;;;;5128332;27;20100;-72
2022/03/27 07:36:18;;;;;;;43.78;7.95;;;7.50;99.90;;;;;;5081967;28;20429;-70
2022/03/27 07:38:43;;;;;;;62.72;17.50;;;7.60;99.90;;;;;;5101165;28;20040;-71
2022/03/27 07:41:09;;;;;;;46.95;12.10;;;7.60;99.90;;;;;;5100168;28;20036;-71
2022/03/27 07:43:35;;;;;;;129.57;61.05;;;7.60;99.90;;;;;;5100304;27;20032;-70
2022/03/27 07:46:01;;;;;;;41.42;13.35;;;7.50;99.90;;;;;;5098821;28;20082;-71
2022/03/27 07:48:27;;;;;;;37.67;8.57;;;7.70;99.90;;;;;;5099021;27;20047;-71
2022/03/27 07:50:54;;;;;;;41.60;9.90;;;7.70;99.90;;;;;;5103288;27;20054;-70
2022/03/27 07:53:21;;;;;;;64.50;26.25;;;7.70;99.90;;;;;;5100111;28;20056;-71
2022/03/27 07:55:46;;;;;;;46.42;11.25;;;7.70;99.90;;;;;;5098693;27;20040;-69
2022/03/27 07:58:12;;;;;;;47.63;10.63;;;7.70;99.90;;;;;;5095263;28;20040;-71
2022/03/27 08:00:38;;;;;;;42.22;8.38;;;7.80;99.90;;;;;;5097142;28;20052;-71
2022/03/27 08:03:04;;;;;;;37.92;6.78;;;7.80;99.90;;;;;;5097597;27;20081;-71
2022/03/27 08:05:30;;;;;;;44.70;11.05;;;7.90;99.90;;;;;;5100860;28;20048;-71
2022/03/27 08:07:56;;;;;;;36.97;13.68;;;8.00;99.90;;;;;;5100433;28;20039;-71
2022/03/27 08:10:22;;;;;;;38.58;11.00;;;8.00;99.90;;;;;;5099857;28;20126;-72
2022/03/27 08:12:48;;;;;;;34.55;6.68;;;8.10;99.90;;;;;;5115446;27;20135;-72
2022/03/27 08:15:14;;;;;;;35.47;8.25;;;8.10;99.90;;;;;;5101826;28;20039;-71
2022/03/27 08:17:40;;;;;;;41.03;8.88;;;8.40;99.90;;;;;;5099703;28;21082;-71
2022/03/27 08:20:07;;;;;;;31.80;7.60;;;8.50;99.90;;;;;;5098203;28;20039;-71
2022/03/27 08:22:33;;;;;;;36.28;7.45;;;8.70;99.90;;;;;;5097693;27;20039;-71
2022/03/27 08:24:59;;;;;;;37.10;8.32;;;9.00;99.90;;;;;;5099877;28;20101;-71
2022/03/27 08:27:25;;;;;;;22.80;5.97;;;9.10;99.90;;;;;;5098860;28;20838;-71
2022/03/27 08:29:51;;;;;;;27.95;7.85;;;9.30;99.90;;;;;;5100150;27;20035;-71
2022/03/27 08:32:17;;;;;;;33.47;8.70;;;9.50;99.90;;;;;;5128013;27;20081;-71
2022/03/27 08:34:46;;;;;;;29.40;6.20;;;9.50;99.90;;;;;;5099998;28;20044;-71
2022/03/27 08:37:14;;;;;;;32.38;7.45;;;9.70;99.90;;;;;;5098375;28;20048;-70
2022/03/27 08:39:44;;;;;;;36.45;7.53;;;9.80;99.90;;;;;;5100486;28;20027;-71
2022/03/27 08:42:12;;;;;;;30.20;8.50;;;9.80;99.90;;;;;;5099037;28;20097;-71
2022/03/27 08:44:38;;;;;;;36.30;7.47;;;10.00;99.90;;;;;;5099530;28;20028;-71
2022/03/27 08:47:15;;;;;;;32.85;7.40;;;10.20;99.90;;;;;;5099877;28;20036;-71
2022/03/27 08:49:47;;;;;;;36.75;7.28;;;10.20;99.90;;;;;;5096541;28;20036;-71
2022/03/27 08:52:23;;;;;;;34.33;7.15;;;10.40;99.90;;;;;;5101961;28;20043;-71
2022/03/27 08:55:15;;;;;;;34.40;6.50;;;10.40;99.90;;;;;;5098627;28;20052;-71
2022/03/27 08:57:58;;;;;;;32.05;7.15;;;10.40;99.90;;;;;;5097212;28;20052;-71
2022/03/27 09:00:33;;;;;;;35.72;7.75;;;10.50;99.90;;;;;;5096126;28;20036;-70
2022/03/27 09:03:01;;;;;;;26.75;6.63;;;10.60;99.90;;;;;;5097688;28;20036;-71
2022/03/27 09:05:28;;;;;;;26.05;6.80;;;10.80;99.90;;;;;;5097858;28;20040;-71
2022/03/27 09:07:55;;;;;;;27.38;7.13;;;10.90;99.90;;;;;;5097767;28;20047;-71
2022/03/27 09:10:22;;;;;;;31.15;6.82;;;11.10;99.90;;;;;;5097563;28;20044;-71
2022/03/27 09:12:55;;;;;;;30.90;6.68;;;11.30;99.90;;;;;;5095250;28;20051;-74
2022/03/27 09:15:20;;;;;;;30.20;7.13;;;11.40;99.90;;;;;;5100689;28;20070;-71
2022/03/27 09:18:01;;;;;;;29.75;6.75;;;11.50;99.90;;;;;;5127562;27;20121;-71
2022/03/27 09:20:39;;;;;;;29.15;5.75;;;11.70;99.90;;;;;;5099790;27;20115;-71
2022/03/27 09:23:15;;;;;;;30.38;6.72;;;11.80;99.90;;;;;;5103200;27;20588;-71
2022/03/27 09:25:59;;;;;;;37.30;6.60;;;11.90;99.90;;;;;;5101189;28;20167;-70
2022/03/27 09:28:36;;;;;;;25.42;6.22;;;11.90;99.90;;;;;;5098098;28;20035;-70
2022/03/27 09:31:25;;;;;;;26.73;7.10;;;12.00;99.90;;;;;;5098758;27;20036;-70
2022/03/27 09:33:52;;;;;;;30.35;7.93;;;12.10;99.90;;;;;;5100295;28;20032;-70
2022/03/27 09:36:32;;;;;;;33.22;6.97;;;12.20;99.90;;;;;;5098547;28;20142;-70
2022/03/27 09:39:12;;;;;;;28.08;6.68;;;12.20;99.90;;;;;;5102047;27;20044;-72
2022/03/27 09:42:01;;;;;;;32.35;6.43;;;12.20;99.90;;;;;;5126499;27;20378;-69
2022/03/27 09:44:29;;;;;;;24.88;6.50;;;12.30;99.90;;;;;;5095947;28;20163;-71
2022/03/27 09:47:06;;;;;;;29.40;6.38;;;12.30;99.90;;;;;;5095683;28;20131;-71
2022/03/27 09:49:39;;;;;;;26.48;6.32;;;12.30;99.90;;;;;;5094566;28;20051;-72
2022/03/27 09:52:10;;;;;;;34.25;8.20;;;12.50;99.90;;;;;;5098136;27;20377;-72
2022/03/27 09:54:53;;;;;;;33.08;7.03;;;12.80;99.90;;;;;;5096423;28;20122;-72
2022/03/27 09:57:26;;;;;;;27.45;6.85;;;13.00;99.90;;;;;;5099090;28;20044;-70
2022/03/27 09:59:53;;;;;;;24.73;6.03;;;13.20;99.90;;;;;;5099424;28;20044;-70
2022/03/27 10:02:30;;;;;;;33.90;6.05;;;13.20;98.00;;;;;;5101235;28;20034;-70
2022/03/27 10:05:03;;;;;;;27.60;5.70;;;13.20;96.00;;;;;;5101492;28;20039;-69
2022/03/27 10:07:44;;;;;;;32.25;6.55;;;13.00;95.70;;;;;;5081173;28;20039;-69
2022/03/27 10:10:12;;;;;;;27.67;7.35;;;13.10;96.10;;;;;;5100239;28;20032;-69
2022/03/27 10:12:39;;;;;;;22.73;5.20;;;13.30;97.00;;;;;;5095733;28;20044;-69
2022/03/27 10:15:06;;;;;;;26.67;6.03;;;13.40;96.00;;;;;;5115682;27;20046;-69
2022/03/27 10:17:37;;;;;;;22.17;5.47;;;13.40;93.70;;;;;;5113423;27;20047;-69
2022/03/27 10:20:13;;;;;;;23.63;5.10;;;13.40;93.30;;;;;;5092094;28;20122;-68
2022/03/27 10:22:43;;;;;;;;;;;13.30;92.20;;;;;;5095519;28;20397;-69
2022/03/27 10:25:11;;;;;;;22.95;6.18;;;13.20;92.30;;;;;;5099210;28;20010;-69
2022/03/27 10:27:39;;;;;;;23.08;5.35;;;13.30;93.10;;;;;;5093042;28;20047;-68
2022/03/27 10:30:07;;;;;;;21.15;5.55;;;13.40;90.60;;;;;;5097293;28;20066;-69
2022/03/27 10:32:34;;;;;;;32.30;6.13;;;13.40;90.50;;;;;;5095317;28;20605;-69
2022/03/27 10:35:24;;;;;;;25.45;5.07;;;13.50;91.80;;;;;;5096821;28;20544;-69
2022/03/27 10:38:04;;;;;;;18.30;5.20;;;13.70;90.80;;;;;;5100137;28;20058;-69
2022/03/27 10:41:20;;;;;;;23.30;5.68;;;13.90;91.50;;;;;;5096691;28;20101;-69
2022/03/27 10:43:57;;;;;;;22.15;5.22;;;13.90;88.20;;;;;;5099290;28;20056;-69
2022/03/27 10:46:24;;;;;;;18.33;4.30;;;13.90;88.20;;;;;;5112918;28;20039;-69
2022/03/27 10:48:53;;;;;;;16.77;3.63;;;14.00;89.60;;;;;;5098472;28;20088;-69
2022/03/27 10:51:24;;;;;;;16.88;4.80;;;14.10;83.80;;;;;;5099504;28;20039;-69
2022/03/27 10:54:08;;;;;;;23.20;5.15;;;14.20;81.70;;;;;;5127753;27;20055;-69
2022/03/27 10:56:51;;;;;;;27.35;4.78;;;14.20;79.90;;;;;;5101338;28;20131;-69
2022/03/27 10:59:19;;;;;;;20.23;5.47;;;14.30;80.90;;;;;;5101630;28;20043;-69
2022/03/27 11:01:54;;;;;;;22.48;5.22;;;14.30;81.10;;;;;;5097690;28;20097;-69
2022/03/27 11:04:21;;;;;;;22.63;4.75;;;14.40;79.20;;;;;;5098508;28;20031;-69
2022/03/27 11:06:49;;;;;;;17.88;4.97;;;14.30;76.50;;;;;;5099358;28;20039;-69
2022/03/27 11:09:35;;;;;;;21.08;4.65;;;14.50;81.00;;;;;;5097740;28;20113;-69
2022/03/27 11:12:24;;;;;;;19.52;4.50;;;14.70;80.80;;;;;;5097987;28;20042;-69
2022/03/27 11:14:53;;;;;;;20.17;4.55;;;14.70;76.50;;;;;;5088604;28;20131;-69
2022/03/27 11:17:44;;;;;;;23.00;4.35;;;14.60;77.10;;;;;;5095499;28;20052;-69
2022/03/27 11:20:23;;;;;;;22.70;5.50;;;14.60;78.40;;;;;;5097944;28;20092;-69
2022/03/27 11:22:53;;;;;;;24.30;5.45;;;14.80;77.80;;;;;;5098022;28;20048;-69
2022/03/27 11:25:39;;;;;;;21.38;4.20;;;14.90;76.10;;;;;;5090994;28;20541;-69
2022/03/27 11:28:05;;;;;;;19.08;3.97;;;14.90;74.80;;;;;;5089991;28;20140;-69
2022/03/27 11:30:33;;;;;;;23.40;5.28;;;14.90;74.20;;;;;;5095563;28;20134;-69
2022/03/27 11:33:12;;;;;;;17.90;4.03;;;14.90;74.90;;;;;;5097437;27;20047;-68
2022/03/27 11:35:39;;;;;;;19.15;4.72;;;15.10;73.90;;;;;;5100820;27;20134;-68
2022/03/27 11:38:28;;;;;;;21.55;4.50;;;15.10;71.70;;;;;;5127233;27;20039;-69
2022/03/27 11:40:55;;;;;;;20.08;5.55;;;15.20;73.30;;;;;;5096001;28;20088;-70
2022/03/27 11:43:34;;;;;;;23.02;5.60;;;15.30;72.00;;;;;;5095950;28;20036;-70
2022/03/27 11:46:01;;;;;;;20.00;4.50;;;15.40;73.40;;;;;;5097458;27;20155;-70
2022/03/27 11:48:28;;;;;;;20.23;4.57;;;15.40;70.80;;;;;;5095987;28;20039;-70
2022/03/27 11:50:55;;;;;;;14.88;4.35;;;15.40;68.10;;;;;;5098374;28;20043;-69
2022/03/27 11:53:36;;;;;;;19.65;5.03;;;15.30;67.20;;;;;;5093912;27;20069;-69
2022/03/27 11:56:09;;;;;;;20.83;3.85;;;15.30;68.10;;;;;;5095190;27;20400;-69
2022/03/27 11:58:36;;;;;;;14.38;4.00;;;15.40;68.90;;;;;;5095501;27;20067;-69
2022/03/27 12:01:10;;;;;;;21.75;5.47;;;15.50;69.40;;;;;;5092327;27;20047;-69
2022/03/27 12:03:39;;;;;;;16.42;3.90;;;15.50;68.20;;;;;;5096842;27;20044;-69
2022/03/27 12:06:10;;;;;;;19.65;4.97;;;15.60;67.80;;;;;;5126474;27;20086;-70
2022/03/27 12:08:41;;;;;;;15.45;3.95;;;15.60;65.80;;;;;;5101397;27;20123;-70
2022/03/27 12:11:08;;;;;;;26.52;5.10;;;15.60;64.60;;;;;;5098605;27;20517;-70
2022/03/27 12:13:43;;;;;;;16.85;4.25;;;15.80;68.20;;;;;;5097460;28;20143;-70
2022/03/27 12:16:16;;;;;;;14.77;3.50;;;15.80;66.60;;;;;;5098581;27;20118;-70
2022/03/27 12:18:44;;;;;;;17.35;4.43;;;15.80;65.40;;;;;;5096788;28;20040;-71
2022/03/27 12:21:14;;;;;;;19.45;5.25;;;15.60;65.60;;;;;;5096391;27;20097;-71
2022/03/27 12:23:49;;;;;;;20.00;4.60;;;15.70;66.50;;;;;;5097254;28;20048;-70
2022/03/27 12:32:05;;;;;;;17.25;4.18;;;15.90;66.30;;;;;;5097328;27;20039;-70
2022/03/27 12:34:32;;;;;;;19.70;4.22;;;15.90;66.40;;;;;;5099341;27;20122;-70
2022/03/27 12:37:16;;;;;;;22.13;4.57;;;15.90;66.20;;;;;;5107655;27;20059;-70
2022/03/27 12:39:48;;;;;;;19.77;4.65;;;16.00;67.20;;;;;;5101206;27;20054;-70
2022/03/27 12:42:37;;;;;;;16.25;3.85;;;15.80;67.50;;;;;;5130141;27;20042;-70
2022/03/27 12:45:12;;;;;;;15.35;3.55;;;16.00;64.90;;;;;;5127179;27;20051;-69
2022/03/27 12:47:59;;;;;;;23.08;4.63;;;16.00;65.70;;;;;;5100020;28;20047;-68
2022/03/27 12:50:27;;;;;;;23.90;7.03;;;16.00;65.00;;;;;;5102120;27;20135;-69
2022/03/27 12:52:56;;;;;;;19.10;4.57;;;16.10;66.70;;;;;;5101299;27;20048;-68
2022/03/27 12:55:25;;;;;;;19.20;4.63;;;16.10;65.70;;;;;;5099008;28;20052;-68
2022/03/27 12:57:52;;;;;;;30.30;4.78;;;16.20;65.90;;;;;;5102001;28;20036;-70
2022/03/27 13:00:19;;;;;;;19.33;4.97;;;15.80;66.90;;;;;;5099903;28;20119;-69